createdAt,value
2022-08-03T00:00:09.412Z,18.95
2022-08-03T00:00:41.550Z,18.89
2022-08-03T00:01:16.542Z,18.85
2022-08-03T00:01:48.137Z,18.85
2022-08-03T00:02:19.801Z,18.79
2022-08-03T00:02:51.501Z,18.76
2022-08-03T00:03:23.261Z,18.76
2022-08-03T00:03:55.297Z,18.65
2022-08-03T00:04:33.574Z,18.65
2022-08-03T00:05:08.400Z,18.64
2022-08-03T00:05:40.164Z,18.68
2022-08-03T00:06:36.816Z,18.69
2022-08-03T00:07:08.862Z,18.72
2022-08-03T00:07:41.171Z,18.69
2022-08-03T00:08:12.729Z,18.54
2022-08-03T00:08:44.481Z,18.54
2022-08-03T00:09:16.090Z,18.55
2022-08-03T00:09:47.669Z,18.47
2022-08-03T00:10:19.266Z,18.47
2022-08-03T00:10:50.902Z,18.43
2022-08-03T00:11:22.675Z,18.41
2022-08-03T00:11:54.401Z,18.46
2022-08-03T00:12:26.126Z,18.48
2022-08-03T00:12:57.810Z,18.50
2022-08-03T00:13:29.426Z,18.50
2022-08-03T00:14:01.328Z,18.43
2022-08-03T00:14:32.996Z,18.43
2022-08-03T00:15:08.307Z,18.41
2022-08-03T00:15:43.434Z,18.36
2022-08-03T00:16:15.284Z,18.37
2022-08-03T00:16:46.836Z,18.34
2022-08-03T00:17:18.647Z,18.36
2022-08-03T00:17:52.916Z,18.34
2022-08-03T00:18:25.528Z,18.36
2022-08-03T00:18:57.165Z,18.30
2022-08-03T00:19:28.814Z,18.33
2022-08-03T00:20:00.352Z,18.32
2022-08-03T00:20:31.999Z,18.24
2022-08-03T00:21:04.421Z,18.24
2022-08-03T00:21:36.054Z,18.20
2022-08-03T00:22:07.637Z,18.18
2022-08-03T00:22:39.282Z,18.16
2022-08-03T00:23:11.437Z,18.14
2022-08-03T00:23:51.397Z,18.10
2022-08-03T00:24:24.175Z,18.09
2022-08-03T00:24:55.805Z,18.09
2022-08-03T00:25:27.784Z,18.03
2022-08-03T00:25:59.355Z,18.02
2022-08-03T00:26:31.738Z,18.02
2022-08-03T00:27:03.329Z,18.05
2022-08-03T00:27:34.888Z,18.02
2022-08-03T00:28:08.619Z,17.97
2022-08-03T00:28:40.154Z,17.93
2022-08-03T00:29:11.882Z,17.96
2022-08-03T00:29:57.583Z,17.93
2022-08-03T00:30:32.486Z,17.99
2022-08-03T00:31:04.087Z,17.99
2022-08-03T00:31:52.192Z,18.02
2022-08-03T00:32:24.814Z,18.03
2022-08-03T00:32:56.946Z,18.03
2022-08-03T00:33:29.965Z,18.05
2022-08-03T00:34:32.611Z,18.05
2022-08-03T00:35:11.351Z,17.99
2022-08-03T00:35:50.136Z,18.00
2022-08-03T00:36:22.084Z,17.99
2022-08-03T00:36:53.686Z,18.00
2022-08-03T00:37:41.527Z,18.05
2022-08-03T00:38:13.981Z,18.05
2022-08-03T00:38:45.529Z,18.06
2022-08-03T00:39:17.086Z,18.07
2022-08-03T00:39:48.745Z,18.16
2022-08-03T00:40:20.872Z,18.18
2022-08-03T00:40:52.454Z,18.18
2022-08-03T00:41:24.310Z,18.17
2022-08-03T00:41:55.895Z,18.10
2022-08-03T00:42:27.468Z,18.12
2022-08-03T00:43:05.422Z,18.03
2022-08-03T00:43:36.986Z,18.02
2022-08-03T00:44:08.525Z,18.02
2022-08-03T00:44:45.166Z,18.06
2022-08-03T00:45:21.712Z,18.03
2022-08-03T00:45:54.730Z,18.02
2022-08-03T00:46:26.330Z,18.02
2022-08-03T00:46:57.972Z,18.02
2022-08-03T00:47:31.817Z,17.96
2022-08-03T00:48:05.042Z,17.96
2022-08-03T00:48:36.710Z,18.00
2022-08-03T00:49:08.386Z,18.02
2022-08-03T00:49:41.338Z,18.02
2022-08-03T00:50:13.480Z,18.05
2022-08-03T00:50:45.062Z,18.06
2022-08-03T00:51:16.866Z,18.06
2022-08-03T00:51:48.717Z,18.06
2022-08-03T00:52:20.544Z,18.03
2022-08-03T00:52:54.218Z,18.05
2022-08-03T00:53:25.986Z,18.07
2022-08-03T00:53:57.600Z,18.10
2022-08-03T00:54:29.874Z,18.13
2022-08-03T00:55:02.728Z,18.10
2022-08-03T00:55:36.256Z,18.05
2022-08-03T00:56:07.857Z,18.03
2022-08-03T00:56:41.048Z,18.03
2022-08-03T00:57:33.617Z,18.00
2022-08-03T00:58:06.688Z,18.03
2022-08-03T00:58:38.284Z,18.05
2022-08-03T00:59:14.484Z,18.05
2022-08-03T00:59:46.427Z,18.07
2022-08-03T01:00:23.697Z,18.03
2022-08-03T01:00:55.299Z,18.05
2022-08-03T01:01:26.992Z,18.00
2022-08-03T01:02:04.028Z,18.00
2022-08-03T01:02:35.979Z,17.93
2022-08-03T01:03:09.180Z,17.92
2022-08-03T01:03:41.253Z,17.90
2022-08-03T01:04:12.906Z,17.83
2022-08-03T01:04:44.456Z,17.83
2022-08-03T01:05:16.148Z,17.86
2022-08-03T01:05:53.809Z,17.85
2022-08-03T01:06:46.016Z,17.83
2022-08-03T01:07:26.644Z,17.81
2022-08-03T01:08:19.256Z,17.79
2022-08-03T01:09:12.285Z,17.78
2022-08-03T01:09:56.097Z,17.81
2022-08-03T01:10:32.555Z,17.85
2022-08-03T01:11:10.233Z,17.81
2022-08-03T01:12:00.608Z,17.78
2022-08-03T01:12:44.045Z,17.83
2022-08-03T01:14:03.736Z,17.89
2022-08-03T01:14:54.208Z,17.92
2022-08-03T01:15:36.666Z,17.88
2022-08-03T01:16:36.023Z,17.85
2022-08-03T01:17:25.643Z,17.79
2022-08-03T01:18:07.993Z,17.72
2022-08-03T01:19:13.250Z,17.76
2022-08-03T01:20:02.651Z,17.66
2022-08-03T01:20:37.062Z,17.71
2022-08-03T01:21:16.755Z,17.68
2022-08-03T01:21:51.024Z,17.62
2022-08-03T01:22:31.451Z,17.64
2022-08-03T01:23:18.020Z,17.64
2022-08-03T01:24:03.795Z,17.65
2022-08-03T01:24:50.826Z,17.64
2022-08-03T01:25:54.277Z,17.65
2022-08-03T01:26:53.800Z,17.58
2022-08-03T01:27:57.044Z,17.48
2022-08-03T01:28:34.806Z,17.44
2022-08-03T01:29:37.151Z,17.45
2022-08-03T01:30:12.024Z,17.44
2022-08-03T01:30:45.863Z,17.47
2022-08-03T01:31:23.891Z,17.47
2022-08-03T01:33:02.018Z,17.42
2022-08-03T01:33:02.301Z,17.47
2022-08-03T01:33:43.067Z,17.41
2022-08-03T01:34:16.864Z,17.42
2022-08-03T01:34:58.996Z,17.41
2022-08-03T01:35:45.494Z,17.47
2022-08-03T01:36:22.018Z,17.47
2022-08-03T01:36:57.581Z,17.44
2022-08-03T01:37:38.760Z,17.45
2022-08-03T01:38:24.498Z,17.51
2022-08-03T01:39:00.556Z,17.49
2022-08-03T01:39:33.283Z,17.47
2022-08-03T01:40:06.577Z,17.47
2022-08-03T01:40:40.816Z,17.39
2022-08-03T01:41:18.809Z,17.49
2022-08-03T01:41:59.435Z,17.55
2022-08-03T01:42:32.725Z,17.55
2022-08-03T01:43:06.070Z,17.48
2022-08-03T01:44:28.231Z,17.49
2022-08-03T01:44:37.058Z,17.45
2022-08-03T01:45:12.663Z,17.45
2022-08-03T01:45:45.032Z,17.49
2022-08-03T01:46:20.578Z,17.52
2022-08-03T01:46:53.248Z,17.49
2022-08-03T01:47:26.016Z,17.51
2022-08-03T01:47:58.970Z,17.51
2022-08-03T01:48:31.863Z,17.48
2022-08-03T01:49:09.257Z,17.47
2022-08-03T01:49:45.291Z,17.42
2022-08-03T01:50:21.100Z,17.45
2022-08-03T01:50:56.414Z,17.45
2022-08-03T01:52:00.854Z,17.44
2022-08-03T01:52:22.151Z,17.44
2022-08-03T01:52:55.489Z,17.42
2022-08-03T01:53:28.446Z,17.44
2022-08-03T01:54:00.977Z,17.39
2022-08-03T01:54:43.207Z,17.48
2022-08-03T01:55:18.808Z,17.48
2022-08-03T01:55:55.296Z,17.51
2022-08-03T01:56:29.245Z,17.54
2022-08-03T01:57:02.340Z,17.52
2022-08-03T01:57:35.182Z,17.57
2022-08-03T01:58:28.458Z,17.51
2022-08-03T01:59:02.667Z,17.54
2022-08-03T01:59:36.429Z,17.49
2022-08-03T02:00:09.847Z,17.51
2022-08-03T02:01:24.058Z,17.47
2022-08-03T02:02:15.295Z,17.51
2022-08-03T02:02:52.026Z,17.49
2022-08-03T02:03:24.455Z,17.45
2022-08-03T02:04:00.903Z,17.49
2022-08-03T02:04:34.594Z,17.48
2022-08-03T02:05:10.918Z,17.47
2022-08-03T02:05:47.142Z,17.47
2022-08-03T02:07:00.362Z,17.49
2022-08-03T02:07:14.474Z,17.44
2022-08-03T02:07:47.960Z,17.48
2022-08-03T02:08:19.857Z,17.47
2022-08-03T02:08:53.919Z,17.48
2022-08-03T02:09:27.821Z,17.49
2022-08-03T02:10:01.477Z,17.51
2022-08-03T02:10:35.447Z,17.47
2022-08-03T02:11:08.136Z,17.52
2022-08-03T02:11:40.903Z,17.54
2022-08-03T02:12:15.281Z,17.54
2022-08-03T02:12:51.132Z,17.58
2022-08-03T02:13:24.968Z,17.57
2022-08-03T02:13:58.451Z,17.64
2022-08-03T02:14:31.632Z,17.54
2022-08-03T02:15:03.982Z,17.61
2022-08-03T02:15:39.500Z,17.62
2022-08-03T02:16:12.669Z,17.54
2022-08-03T02:16:46.090Z,17.57
2022-08-03T02:17:39.564Z,17.48
2022-08-03T02:18:11.846Z,17.51
2022-08-03T02:18:43.578Z,17.49
2022-08-03T02:19:17.383Z,17.51
2022-08-03T02:19:50.847Z,17.52
2022-08-03T02:20:22.621Z,17.48
2022-08-03T02:20:55.762Z,17.48
2022-08-03T02:21:56.352Z,17.51
2022-08-03T02:22:22.650Z,17.42
2022-08-03T02:22:54.410Z,17.44
2022-08-03T02:23:26.085Z,17.35
2022-08-03T02:23:57.892Z,17.32
2022-08-03T02:24:30.137Z,17.34
2022-08-03T02:25:01.834Z,17.32
2022-08-03T02:25:38.777Z,17.27
2022-08-03T02:26:16.689Z,17.27
2022-08-03T02:26:49.801Z,17.26
2022-08-03T02:27:24.545Z,17.32
2022-08-03T02:28:01.317Z,17.24
2022-08-03T02:28:37.152Z,17.21
2022-08-03T02:29:16.378Z,17.21
2022-08-03T02:29:56.400Z,17.23
2022-08-03T02:30:39.112Z,17.23
2022-08-03T02:31:18.028Z,17.21
2022-08-03T02:31:51.122Z,17.26
2022-08-03T02:32:30.749Z,17.24
2022-08-03T02:33:02.946Z,17.20
2022-08-03T02:33:39.025Z,17.16
2022-08-03T02:34:14.192Z,17.16
2022-08-03T02:34:49.025Z,17.13
2022-08-03T02:35:24.492Z,17.10
2022-08-03T02:35:58.263Z,17.03
2022-08-03T02:36:31.921Z,17.06
2022-08-03T02:37:05.060Z,17.06
2022-08-03T02:37:42.990Z,17.03
2022-08-03T02:38:26.303Z,17.00
2022-08-03T02:39:00.784Z,17.00
2022-08-03T02:39:34.369Z,17.02
2022-08-03T02:40:08.102Z,16.94
2022-08-03T02:40:43.224Z,16.97
2022-08-03T02:41:18.107Z,16.97
2022-08-03T02:41:52.421Z,16.93
2022-08-03T02:42:27.023Z,16.96
2022-08-03T02:43:02.803Z,16.91
2022-08-03T02:44:05.555Z,16.89
2022-08-03T02:44:32.694Z,16.84
2022-08-03T02:45:08.348Z,16.89
2022-08-03T02:45:49.061Z,16.87
2022-08-03T02:46:25.560Z,16.93
2022-08-03T02:47:01.929Z,16.97
2022-08-03T02:47:53.233Z,16.94
2022-08-03T02:48:29.459Z,16.97
2022-08-03T02:49:34.953Z,16.96
2022-08-03T02:49:57.425Z,16.87
2022-08-03T02:50:30.699Z,16.80
2022-08-03T02:51:03.737Z,16.77
2022-08-03T02:51:37.664Z,16.80
2022-08-03T02:52:15.857Z,16.81
2022-08-03T02:52:49.654Z,16.77
2022-08-03T02:53:23.498Z,16.80
2022-08-03T02:53:56.581Z,16.83
2022-08-03T02:54:29.029Z,16.87
2022-08-03T02:55:03.374Z,16.81
2022-08-03T02:55:35.907Z,16.83
2022-08-03T02:56:15.671Z,16.87
2022-08-03T02:56:48.287Z,16.79
2022-08-03T02:57:21.595Z,16.79
2022-08-03T02:57:55.577Z,16.72
2022-08-03T02:58:27.475Z,16.72
2022-08-03T02:58:59.613Z,16.68
2022-08-03T02:59:32.198Z,16.75
2022-08-03T03:00:05.690Z,16.79
2022-08-03T03:00:38.699Z,16.79
2022-08-03T03:01:11.544Z,16.80
2022-08-03T03:01:44.669Z,16.76
2022-08-03T03:02:18.293Z,16.79
2022-08-03T03:02:51.855Z,16.75
2022-08-03T03:03:23.835Z,16.81
2022-08-03T03:04:00.224Z,16.89
2022-08-03T03:04:35.277Z,16.87
2022-08-03T03:05:52.344Z,16.90
2022-08-03T03:06:05.603Z,16.86
2022-08-03T03:06:39.343Z,16.87
2022-08-03T03:07:14.499Z,16.90
2022-08-03T03:07:51.693Z,16.77
2022-08-03T03:08:28.415Z,16.91
2022-08-03T03:09:01.469Z,17.02
2022-08-03T03:09:40.319Z,17.03
2022-08-03T03:10:13.593Z,17.06
2022-08-03T03:10:46.608Z,17.10
2022-08-03T03:11:21.453Z,17.11
2022-08-03T03:11:53.905Z,17.06
2022-08-03T03:12:26.793Z,17.06
2022-08-03T03:13:00.987Z,17.13
2022-08-03T03:13:32.845Z,17.11
2022-08-03T03:14:04.809Z,17.07
2022-08-03T03:14:40.893Z,17.06
2022-08-03T03:15:12.629Z,17.13
2022-08-03T03:15:45.500Z,17.13
2022-08-03T03:16:18.902Z,17.07
2022-08-03T03:16:52.481Z,17.11
2022-08-03T03:17:31.062Z,17.03
2022-08-03T03:18:03.435Z,16.99
2022-08-03T03:18:37.432Z,16.97
2022-08-03T03:19:11.657Z,16.90
2022-08-03T03:19:45.652Z,16.91
2022-08-03T03:20:29.800Z,16.94
2022-08-03T03:21:04.091Z,16.87
2022-08-03T03:21:37.422Z,16.86
2022-08-03T03:22:10.036Z,16.84
2022-08-03T03:22:43.498Z,16.75
2022-08-03T03:23:17.816Z,16.77
2022-08-03T03:23:50.186Z,16.69
2022-08-03T03:24:21.980Z,16.51
2022-08-03T03:24:54.769Z,16.59
2022-08-03T03:25:26.546Z,16.62
2022-08-03T03:25:59.033Z,16.66
2022-08-03T03:26:30.787Z,16.66
2022-08-03T03:27:03.580Z,16.63
2022-08-03T03:27:35.456Z,16.59
2022-08-03T03:28:07.630Z,16.65
2022-08-03T03:28:39.728Z,16.65
2022-08-03T03:29:11.924Z,16.65
2022-08-03T03:29:44.178Z,16.65
2022-08-03T03:30:15.797Z,16.79
2022-08-03T03:30:52.786Z,16.83
2022-08-03T03:31:24.575Z,16.81
2022-08-03T03:31:57.402Z,16.83
2022-08-03T03:32:29.864Z,16.81
2022-08-03T03:33:02.848Z,16.86
2022-08-03T03:33:35.354Z,16.86
2022-08-03T03:34:07.285Z,16.84
2022-08-03T03:34:39.066Z,16.79
2022-08-03T03:35:10.895Z,16.81
2022-08-03T03:35:44.653Z,16.75
2022-08-03T03:36:16.324Z,16.72
2022-08-03T03:36:48.003Z,16.70
2022-08-03T03:37:19.767Z,16.68
2022-08-03T03:37:52.274Z,16.60
2022-08-03T03:38:23.897Z,16.52
2022-08-03T03:38:55.524Z,16.60
2022-08-03T03:39:27.145Z,16.60
2022-08-03T03:39:58.776Z,16.56
2022-08-03T03:40:30.535Z,16.58
2022-08-03T03:41:02.753Z,16.60
2022-08-03T03:41:35.124Z,16.56
2022-08-03T03:42:06.872Z,16.60
2022-08-03T03:42:38.662Z,16.55
2022-08-03T03:43:12.185Z,16.59
2022-08-03T03:43:44.065Z,16.53
2022-08-03T03:44:16.042Z,16.60
2022-08-03T03:44:47.676Z,16.63
2022-08-03T03:45:20.691Z,16.60
2022-08-03T03:45:53.731Z,16.58
2022-08-03T03:46:25.760Z,16.59
2022-08-03T03:47:00.639Z,16.62
2022-08-03T03:47:36.296Z,16.59
2022-08-03T03:48:08.699Z,16.59
2022-08-03T03:48:40.566Z,16.58
2022-08-03T03:49:12.875Z,16.58
2022-08-03T03:49:45.549Z,16.63
2022-08-03T03:50:19.231Z,16.68
2022-08-03T03:50:50.950Z,16.68
2022-08-03T03:51:22.577Z,16.66
2022-08-03T03:51:55.446Z,16.77
2022-08-03T03:52:27.110Z,16.81
2022-08-03T03:52:59.048Z,16.84
2022-08-03T03:53:30.640Z,16.89
2022-08-03T03:54:05.805Z,16.91
2022-08-03T03:54:45.470Z,16.93
2022-08-03T03:55:18.331Z,16.93
2022-08-03T03:55:59.782Z,16.91
2022-08-03T03:56:34.366Z,16.93
2022-08-03T03:57:05.958Z,16.96
2022-08-03T03:57:37.550Z,16.97
2022-08-03T03:58:09.268Z,16.99
2022-08-03T03:58:40.855Z,17.00
2022-08-03T03:59:12.528Z,17.07
2022-08-03T03:59:44.485Z,17.07
2022-08-03T04:00:18.655Z,17.06
2022-08-03T04:00:50.963Z,17.08
2022-08-03T04:01:23.329Z,17.08
2022-08-03T04:01:59.131Z,17.16
2022-08-03T04:02:31.237Z,17.24
2022-08-03T04:03:02.925Z,17.28
2022-08-03T04:03:35.817Z,17.28
2022-08-03T04:04:25.641Z,17.28
2022-08-03T04:05:15.498Z,17.34
2022-08-03T04:06:05.946Z,17.41
2022-08-03T04:06:56.414Z,17.45
2022-08-03T04:08:01.505Z,17.45
2022-08-03T04:08:51.832Z,17.48
2022-08-03T04:09:41.975Z,17.48
2022-08-03T04:10:37.744Z,17.49
2022-08-03T04:11:14.710Z,17.48
2022-08-03T04:11:51.490Z,17.49
2022-08-03T04:12:26.437Z,17.48
2022-08-03T04:13:00.600Z,17.51
2022-08-03T04:13:42.486Z,17.52
2022-08-03T04:14:22.826Z,17.54
2022-08-03T04:14:57.026Z,17.62
2022-08-03T04:15:31.400Z,17.57
2022-08-03T04:16:04.224Z,17.62
2022-08-03T04:16:43.840Z,17.66
2022-08-03T04:17:17.113Z,17.65
2022-08-03T04:17:50.791Z,17.62
2022-08-03T04:18:23.578Z,17.62
2022-08-03T04:19:02.409Z,17.64
2022-08-03T04:19:51.336Z,17.59
2022-08-03T04:20:24.062Z,17.62
2022-08-03T04:20:57.167Z,17.62
2022-08-03T04:21:31.352Z,17.59
2022-08-03T04:22:06.572Z,17.62
2022-08-03T04:22:39.744Z,17.66
2022-08-03T04:23:15.441Z,17.69
2022-08-03T04:23:51.518Z,17.72
2022-08-03T04:24:26.557Z,17.74
2022-08-03T04:25:08.902Z,17.72
2022-08-03T04:25:41.306Z,17.71
2022-08-03T04:26:16.359Z,17.76
2022-08-03T04:26:52.773Z,17.69
2022-08-03T04:27:28.832Z,17.74
2022-08-03T04:28:21.026Z,17.72
2022-08-03T04:28:55.140Z,17.79
2022-08-03T04:29:30.838Z,17.79
2022-08-03T04:30:04.874Z,17.85
2022-08-03T04:30:38.906Z,17.85
2022-08-03T04:31:10.484Z,17.88
2022-08-03T04:31:43.304Z,17.90
2022-08-03T04:32:16.102Z,17.86
2022-08-03T04:32:51.816Z,17.89
2022-08-03T04:33:29.234Z,17.89
2022-08-03T04:34:02.541Z,17.90
2022-08-03T04:34:34.192Z,17.96
2022-08-03T04:35:06.860Z,18.02
2022-08-03T04:36:01.341Z,18.07
2022-08-03T04:36:33.635Z,18.10
2022-08-03T04:37:11.474Z,18.13
2022-08-03T04:37:47.974Z,18.12
2022-08-03T04:38:20.191Z,18.16
2022-08-03T04:38:57.416Z,18.16
2022-08-03T04:39:31.861Z,18.17
2022-08-03T04:40:10.606Z,18.22
2022-08-03T04:40:43.868Z,18.33
2022-08-03T04:41:16.896Z,18.30
2022-08-03T04:42:08.197Z,18.29
2022-08-03T04:42:41.978Z,18.41
2022-08-03T04:43:16.840Z,18.38
2022-08-03T04:43:51.267Z,18.38
2022-08-03T04:44:28.347Z,18.41
2022-08-03T04:45:02.786Z,18.47
2022-08-03T04:45:35.771Z,18.46
2022-08-03T04:46:08.693Z,18.48
2022-08-03T04:46:41.960Z,18.51
2022-08-03T04:47:22.800Z,18.55
2022-08-03T04:47:55.000Z,18.54
2022-08-03T04:48:26.750Z,18.53
2022-08-03T04:48:59.290Z,18.54
2022-08-03T04:49:31.820Z,18.58
2022-08-03T04:50:08.072Z,18.63
2022-08-03T04:50:43.123Z,18.68
2022-08-03T04:51:15.225Z,18.68
2022-08-03T04:51:48.917Z,18.65
2022-08-03T04:52:20.666Z,18.71
2022-08-03T04:52:52.246Z,18.75
2022-08-03T04:53:23.989Z,18.74
2022-08-03T04:53:55.634Z,18.78
2022-08-03T04:54:27.261Z,18.81
2022-08-03T04:54:58.930Z,18.84
2022-08-03T04:55:32.201Z,18.87
2022-08-03T04:56:05.575Z,18.88
2022-08-03T04:56:40.537Z,18.89
2022-08-03T04:57:22.259Z,18.91
2022-08-03T04:57:55.650Z,18.96
2022-08-03T04:58:27.293Z,19.01
2022-08-03T04:58:58.871Z,18.99
2022-08-03T04:59:30.485Z,19.02
2022-08-03T05:00:03.638Z,19.02
2022-08-03T05:00:35.409Z,19.05
2022-08-03T05:01:07.199Z,19.05
2022-08-03T05:01:40.781Z,19.06
2022-08-03T05:02:12.415Z,19.09
2022-08-03T05:02:44.021Z,19.12
2022-08-03T05:03:20.414Z,19.08
2022-08-03T05:03:55.693Z,19.12
2022-08-03T05:04:27.278Z,19.16
2022-08-03T05:04:59.577Z,19.16
2022-08-03T05:05:40.665Z,19.22
2022-08-03T05:06:22.045Z,19.27
2022-08-03T05:06:56.781Z,19.30
2022-08-03T05:07:35.417Z,19.33
2022-08-03T05:08:11.249Z,19.37
2022-08-03T05:08:46.968Z,19.33
2022-08-03T05:09:50.117Z,19.34
2022-08-03T05:10:15.900Z,19.46
2022-08-03T05:10:47.790Z,19.47
2022-08-03T05:11:19.531Z,19.56
2022-08-03T05:11:51.093Z,19.59
2022-08-03T05:12:23.760Z,19.60
2022-08-03T05:12:55.328Z,19.60
2022-08-03T05:13:26.953Z,19.64
2022-08-03T05:13:58.546Z,19.67
2022-08-03T05:14:30.368Z,19.69
2022-08-03T05:15:02.401Z,19.74
2022-08-03T05:15:34.005Z,19.80
2022-08-03T05:16:14.865Z,19.85
2022-08-03T05:16:46.507Z,19.88
2022-08-03T05:17:19.532Z,19.88
2022-08-03T05:17:51.101Z,19.91
2022-08-03T05:18:22.727Z,19.95
2022-08-03T05:18:54.293Z,19.97
2022-08-03T05:19:25.849Z,20.07
2022-08-03T05:19:57.449Z,20.11
2022-08-03T05:20:29.035Z,20.14
2022-08-03T05:21:00.655Z,20.11
2022-08-03T05:21:52.184Z,20.14
2022-08-03T05:22:24.086Z,20.21
2022-08-03T05:22:55.653Z,20.15
2022-08-03T05:23:27.700Z,20.15
2022-08-03T05:23:59.281Z,20.22
2022-08-03T05:24:30.849Z,20.26
2022-08-03T05:25:03.051Z,20.29
2022-08-03T05:25:34.735Z,20.33
2022-08-03T05:26:06.458Z,20.33
2022-08-03T05:26:38.099Z,20.36
2022-08-03T05:27:09.675Z,20.39
2022-08-03T05:27:41.353Z,20.43
2022-08-03T05:28:12.941Z,20.46
2022-08-03T05:28:50.682Z,20.49
2022-08-03T05:29:23.056Z,20.53
2022-08-03T05:29:54.727Z,20.57
2022-08-03T05:30:32.409Z,20.59
2022-08-03T05:31:06.157Z,20.66
2022-08-03T05:31:37.805Z,20.70
2022-08-03T05:32:09.436Z,20.69
2022-08-03T05:32:41.090Z,20.70
2022-08-03T05:33:12.778Z,20.70
2022-08-03T05:33:44.799Z,20.75
2022-08-03T05:34:16.378Z,20.79
2022-08-03T05:34:47.994Z,20.80
2022-08-03T05:35:57.366Z,20.84
2022-08-03T05:36:11.121Z,20.84
2022-08-03T05:36:42.748Z,20.87
2022-08-03T05:37:14.381Z,20.89
2022-08-03T05:37:54.509Z,20.96
2022-08-03T05:38:28.547Z,21.01
2022-08-03T05:39:05.631Z,21.04
2022-08-03T05:39:38.023Z,21.06
2022-08-03T05:40:10.289Z,21.11
2022-08-03T05:40:46.862Z,21.08
2022-08-03T05:41:36.550Z,21.18
2022-08-03T05:42:08.959Z,21.24
2022-08-03T05:42:40.535Z,21.26
2022-08-03T05:43:12.143Z,21.27
2022-08-03T05:43:44.882Z,21.30
2022-08-03T05:44:16.466Z,21.37
2022-08-03T05:44:48.105Z,21.45
2022-08-03T05:45:19.984Z,21.49
2022-08-03T05:46:11.750Z,21.51
2022-08-03T05:46:43.179Z,21.59
2022-08-03T05:47:14.791Z,21.68
2022-08-03T05:47:46.657Z,21.66
2022-08-03T05:48:18.248Z,21.74
2022-08-03T05:48:50.204Z,21.78
2022-08-03T05:49:21.801Z,21.79
2022-08-03T05:49:53.413Z,21.81
2022-08-03T05:50:25.097Z,21.79
2022-08-03T05:50:56.725Z,21.81
2022-08-03T05:51:28.964Z,21.78
2022-08-03T05:52:12.106Z,21.78
2022-08-03T05:52:48.073Z,21.82
2022-08-03T05:53:19.953Z,21.89
2022-08-03T05:53:52.257Z,21.97
2022-08-03T05:54:23.839Z,22.00
2022-08-03T05:55:16.081Z,21.96
2022-08-03T05:55:51.313Z,21.93
2022-08-03T05:56:25.879Z,21.97
2022-08-03T05:56:57.517Z,22.07
2022-08-03T05:57:30.227Z,22.07
2022-08-03T05:58:03.858Z,22.16
2022-08-03T05:58:35.474Z,22.19
2022-08-03T05:59:22.773Z,22.20
2022-08-03T05:59:59.052Z,22.26
2022-08-03T06:00:30.754Z,22.33
2022-08-03T06:01:02.812Z,22.39
2022-08-03T06:01:34.438Z,22.41
2022-08-03T06:02:06.228Z,22.43
2022-08-03T06:02:38.254Z,22.39
2022-08-03T06:03:09.941Z,22.37
2022-08-03T06:03:41.586Z,22.46
2022-08-03T06:04:13.406Z,22.48
2022-08-03T06:04:45.507Z,22.64
2022-08-03T06:05:17.129Z,22.68
2022-08-03T06:05:59.952Z,22.71
2022-08-03T06:06:32.561Z,22.69
2022-08-03T06:07:04.177Z,22.68
2022-08-03T06:07:36.042Z,22.77
2022-08-03T06:08:07.829Z,22.81
2022-08-03T06:08:40.415Z,22.83
2022-08-03T06:09:11.986Z,22.92
2022-08-03T06:10:34.880Z,22.94
2022-08-03T06:10:37.852Z,22.95
2022-08-03T06:11:10.027Z,23.02
2022-08-03T06:11:42.145Z,23.06
2022-08-03T06:12:14.339Z,23.11
2022-08-03T06:12:49.304Z,23.18
2022-08-03T06:13:20.878Z,23.22
2022-08-03T06:13:52.452Z,23.26
2022-08-03T06:14:24.021Z,23.32
2022-08-03T06:14:55.753Z,23.38
2022-08-03T06:15:27.337Z,23.41
2022-08-03T06:15:58.913Z,23.41
2022-08-03T06:16:30.605Z,23.56
2022-08-03T06:17:02.181Z,23.70
2022-08-03T06:17:37.614Z,23.74
2022-08-03T06:18:09.456Z,23.75
2022-08-03T06:18:41.191Z,23.77
2022-08-03T06:19:12.790Z,23.80
2022-08-03T06:19:44.374Z,23.81
2022-08-03T06:20:18.640Z,23.80
2022-08-03T06:20:50.915Z,23.81
2022-08-03T06:21:23.933Z,23.88
2022-08-03T06:21:58.761Z,23.90
2022-08-03T06:22:31.438Z,24.00
2022-08-03T06:23:03.536Z,24.11
2022-08-03T06:23:53.499Z,24.22
2022-08-03T06:24:27.208Z,24.41
2022-08-03T06:25:04.799Z,24.53
2022-08-03T06:25:37.370Z,24.75
2022-08-03T06:26:09.028Z,24.90
2022-08-03T06:26:40.602Z,24.91
2022-08-03T06:27:12.333Z,25.03
2022-08-03T06:27:43.895Z,25.04
2022-08-03T06:28:42.477Z,25.11
2022-08-03T06:29:08.533Z,25.09
2022-08-03T06:29:41.480Z,25.00
2022-08-03T06:30:14.577Z,24.94
2022-08-03T06:30:47.832Z,24.87
2022-08-03T06:31:23.977Z,24.80
2022-08-03T06:31:55.760Z,24.79
2022-08-03T06:32:27.364Z,24.89
2022-08-03T06:32:58.951Z,24.96
2022-08-03T06:34:30.045Z,24.89
2022-08-03T06:34:33.938Z,25.02
2022-08-03T06:35:08.582Z,24.97
2022-08-03T06:35:40.154Z,25.04
2022-08-03T06:36:14.093Z,25.17
2022-08-03T06:36:48.470Z,25.33
2022-08-03T06:37:20.107Z,25.34
2022-08-03T06:37:51.975Z,25.41
2022-08-03T06:38:23.634Z,25.45
2022-08-03T06:38:55.174Z,25.40
2022-08-03T06:39:26.742Z,25.45
2022-08-03T06:39:58.366Z,25.48
2022-08-03T06:40:31.314Z,25.45
2022-08-03T06:41:03.003Z,25.52
2022-08-03T06:41:37.494Z,25.55
2022-08-03T06:42:10.563Z,25.57
2022-08-03T06:42:42.640Z,25.59
2022-08-03T06:43:16.056Z,25.59
2022-08-03T06:44:03.305Z,25.59
2022-08-03T06:44:37.583Z,25.58
2022-08-03T06:45:09.798Z,25.54
2022-08-03T06:45:42.085Z,25.57
2022-08-03T06:46:13.668Z,25.55
2022-08-03T06:46:45.322Z,25.59
2022-08-03T06:47:17.310Z,25.62
2022-08-03T06:48:06.717Z,25.65
2022-08-03T06:48:38.299Z,25.45
2022-08-03T06:49:09.954Z,25.52
2022-08-03T06:49:41.827Z,25.55
2022-08-03T06:50:17.947Z,25.61
2022-08-03T06:50:50.651Z,25.64
2022-08-03T06:51:23.663Z,25.65
2022-08-03T06:52:15.248Z,25.79
2022-08-03T06:53:06.922Z,25.92
2022-08-03T06:53:38.944Z,25.82
2022-08-03T06:54:10.935Z,25.85
2022-08-03T06:54:42.571Z,25.93
2022-08-03T06:55:14.287Z,25.96
2022-08-03T06:55:45.872Z,26.00
2022-08-03T06:56:17.465Z,26.03
2022-08-03T06:56:49.086Z,26.03
2022-08-03T06:57:20.702Z,25.98
2022-08-03T06:57:52.323Z,26.02
2022-08-03T06:58:23.938Z,26.02
2022-08-03T06:58:55.513Z,26.13
2022-08-03T07:00:06.519Z,26.17
2022-08-03T07:00:19.331Z,26.19
2022-08-03T07:00:50.934Z,26.13
2022-08-03T07:01:22.564Z,26.22
2022-08-03T07:01:54.282Z,26.32
2022-08-03T07:02:28.270Z,26.19
2022-08-03T07:03:00.316Z,26.17
2022-08-03T07:03:31.917Z,26.22
2022-08-03T07:04:04.962Z,26.33
2022-08-03T07:04:36.521Z,26.35
2022-08-03T07:05:09.515Z,26.15
2022-08-03T07:05:42.334Z,26.10
2022-08-03T07:06:13.926Z,26.23
2022-08-03T07:06:45.478Z,26.26
2022-08-03T07:07:17.824Z,26.30
2022-08-03T07:07:49.613Z,26.41
2022-08-03T07:08:33.157Z,26.44
2022-08-03T07:09:05.729Z,26.44
2022-08-03T07:09:37.377Z,26.48
2022-08-03T07:10:10.051Z,26.46
2022-08-03T07:10:41.666Z,26.33
2022-08-03T07:11:13.267Z,26.26
2022-08-03T07:11:44.841Z,26.23
2022-08-03T07:12:16.485Z,26.33
2022-08-03T07:12:55.586Z,26.39
2022-08-03T07:13:27.893Z,26.53
2022-08-03T07:13:59.493Z,26.63
2022-08-03T07:14:31.146Z,26.64
2022-08-03T07:15:04.046Z,26.67
2022-08-03T07:15:55.547Z,26.73
2022-08-03T07:16:27.444Z,26.65
2022-08-03T07:16:59.067Z,26.73
2022-08-03T07:17:33.591Z,26.61
2022-08-03T07:18:05.357Z,26.74
2022-08-03T07:18:40.374Z,26.75
2022-08-03T07:19:12.316Z,26.81
2022-08-03T07:19:43.924Z,26.81
2022-08-03T07:20:17.450Z,26.92
2022-08-03T07:20:49.064Z,26.81
2022-08-03T07:21:20.658Z,26.87
2022-08-03T07:21:53.623Z,26.91
2022-08-03T07:22:25.720Z,26.98
2022-08-03T07:22:57.298Z,27.12
2022-08-03T07:23:28.864Z,27.12
2022-08-03T07:24:00.440Z,27.04
2022-08-03T07:24:32.076Z,27.01
2022-08-03T07:25:04.976Z,27.05
2022-08-03T07:25:37.357Z,26.92
2022-08-03T07:26:08.934Z,26.78
2022-08-03T07:26:40.546Z,26.81
2022-08-03T07:27:12.134Z,26.94
2022-08-03T07:27:51.693Z,27.08
2022-08-03T07:28:23.534Z,27.24
2022-08-03T07:28:55.124Z,27.38
2022-08-03T07:29:26.724Z,27.32
2022-08-03T07:29:58.739Z,27.06
2022-08-03T07:30:30.375Z,26.98
2022-08-03T07:31:01.940Z,26.90
2022-08-03T07:31:34.430Z,26.87
2022-08-03T07:32:06.277Z,26.90
2022-08-03T07:32:49.838Z,26.99
2022-08-03T07:33:22.555Z,27.22
2022-08-03T07:33:54.135Z,27.45